Esbon, Kansas
Current Conditions -  °F | °C
As of 11:55 PM on Saturday 25 Oct 2014 (Local Time) from KCNK Reporting Station
Clear Clear  
Wind Chill: 59°   Ceiling: Unl
Heat Index: 59°   Visibility: 9mi
Dew Point: 56°   Wind: 5mph
Humidity: 90%   Direction: 100°E
Pressure: 29.93"   Gusts: NA
Location:  39.82°N, 98.44°W
Report Text: KCNK 260455Z AUTO 10004KT 9SM CLR 15/13 A2993 RMK AO2 SLP127 T01500133
Loading
Personal Weather Stations






























Interactive Weather Map
Tropical Storm Tracking
New forecast layout! Learn more

10-Day Weather Forecast

Advertisements
Track Severe Weather on mobile